sensor_id;sensor_type;location;lat;lon;timestamp;P1;durP1;ratioP1;P2;durP2;ratioP2
71626;SDS011;59475;52.464;13.590;2022-09-02T00:00:52;2.57;;;1.43;;
71626;SDS011;59475;52.464;13.590;2022-09-02T00:03:23;2.13;;;1.67;;
71626;SDS011;59475;52.464;13.590;2022-09-02T00:05:49;2.07;;;1.73;;
71626;SDS011;59475;52.464;13.590;2022-09-02T00:08:14;5.68;;;1.75;;
71626;SDS011;59475;52.464;13.590;2022-09-02T00:10:40;3.07;;;1.50;;
71626;SDS011;59475;52.464;13.590;2022-09-02T00:13:08;2.45;;;1.40;;
71626;SDS011;59475;52.464;13.590;2022-09-02T00:15:35;1.60;;;1.43;;
71626;SDS011;59475;52.464;13.590;2022-09-02T00:18:01;2.35;;;1.70;;
71626;SDS011;59475;52.464;13.590;2022-09-02T00:20:28;3.78;;;1.55;;
71626;SDS011;59475;52.464;13.590;2022-09-02T00:22:54;4.03;;;1.52;;
71626;SDS011;59475;52.464;13.590;2022-09-02T00:25:20;3.23;;;1.60;;
71626;SDS011;59475;52.464;13.590;2022-09-02T00:27:47;2.40;;;1.40;;
71626;SDS011;59475;52.464;13.590;2022-09-02T00:30:13;2.47;;;1.40;;
71626;SDS011;59475;52.464;13.590;2022-09-02T00:32:38;2.03;;;1.25;;
71626;SDS011;59475;52.464;13.590;2022-09-02T00:35:04;3.00;;;1.27;;
71626;SDS011;59475;52.464;13.590;2022-09-02T00:37:30;2.10;;;1.50;;
71626;SDS011;59475;52.464;13.590;2022-09-02T00:39:55;2.97;;;1.27;;
71626;SDS011;59475;52.464;13.590;2022-09-02T00:42:22;1.75;;;1.10;;
71626;SDS011;59475;52.464;13.590;2022-09-02T00:44:48;1.65;;;1.50;;
71626;SDS011;59475;52.464;13.590;2022-09-02T00:47:14;1.83;;;1.30;;
71626;SDS011;59475;52.464;13.590;2022-09-02T00:49:40;2.30;;;1.50;;
71626;SDS011;59475;52.464;13.590;2022-09-02T00:52:16;2.63;;;1.40;;
71626;SDS011;59475;52.464;13.590;2022-09-02T00:54:49;3.90;;;1.52;;
71626;SDS011;59475;52.464;13.590;2022-09-02T00:57:21;1.90;;;1.30;;
71626;SDS011;59475;52.464;13.590;2022-09-02T01:02:31;3.65;;;1.55;;
71626;SDS011;59475;52.464;13.590;2022-09-02T01:05:00;3.65;;;1.90;;
71626;SDS011;59475;52.464;13.590;2022-09-02T01:07:28;3.20;;;1.65;;
71626;SDS011;59475;52.464;13.590;2022-09-02T01:09:57;3.77;;;1.67;;
71626;SDS011;59475;52.464;13.590;2022-09-02T01:12:23;2.47;;;1.25;;
71626;SDS011;59475;52.464;13.590;2022-09-02T01:14:51;2.85;;;1.30;;
71626;SDS011;59475;52.464;13.590;2022-09-02T01:17:17;1.97;;;1.60;;
71626;SDS011;59475;52.464;13.590;2022-09-02T01:19:43;2.70;;;1.70;;
71626;SDS011;59475;52.464;13.590;2022-09-02T01:22:17;4.38;;;1.42;;
71626;SDS011;59475;52.464;13.590;2022-09-02T01:24:44;2.63;;;1.30;;
71626;SDS011;59475;52.464;13.590;2022-09-02T01:27:13;1.97;;;1.40;;
71626;SDS011;59475;52.464;13.590;2022-09-02T01:29:40;3.08;;;1.20;;
71626;SDS011;59475;52.464;13.590;2022-09-02T01:32:06;1.52;;;1.27;;
71626;SDS011;59475;52.464;13.590;2022-09-02T01:34:32;2.00;;;1.37;;
71626;SDS011;59475;52.464;13.590;2022-09-02T01:36:57;2.00;;;1.70;;
71626;SDS011;59475;52.464;13.590;2022-09-02T01:39:23;4.50;;;1.50;;
71626;SDS011;59475;52.464;13.590;2022-09-02T01:41:48;1.80;;;1.20;;
71626;SDS011;59475;52.464;13.590;2022-09-02T01:44:14;3.30;;;1.70;;
71626;SDS011;59475;52.464;13.590;2022-09-02T01:46:41;4.82;;;1.63;;
71626;SDS011;59475;52.464;13.590;2022-09-02T01:49:07;1.90;;;1.63;;
71626;SDS011;59475;52.464;13.590;2022-09-02T01:51:32;1.90;;;1.43;;
71626;SDS011;59475;52.464;13.590;2022-09-02T01:53:58;2.63;;;1.40;;
71626;SDS011;59475;52.464;13.590;2022-09-02T01:56:23;1.70;;;1.40;;
71626;SDS011;59475;52.464;13.590;2022-09-02T01:58:48;1.77;;;1.40;;
71626;SDS011;59475;52.464;13.590;2022-09-02T02:01:14;3.53;;;1.50;;
71626;SDS011;59475;52.464;13.590;2022-09-02T02:03:39;2.60;;;1.30;;
71626;SDS011;59475;52.464;13.590;2022-09-02T02:06:12;4.25;;;1.60;;
71626;SDS011;59475;52.464;13.590;2022-09-02T02:08:40;2.00;;;1.45;;
71626;SDS011;59475;52.464;13.590;2022-09-02T02:11:06;1.47;;;1.20;;
71626;SDS011;59475;52.464;13.590;2022-09-02T02:13:33;2.00;;;1.40;;
71626;SDS011;59475;52.464;13.590;2022-09-02T02:15:59;1.98;;;1.50;;
71626;SDS011;59475;52.464;13.590;2022-09-02T02:18:24;2.07;;;1.50;;
71626;SDS011;59475;52.464;13.590;2022-09-02T02:20:50;2.93;;;1.77;;
71626;SDS011;59475;52.464;13.590;2022-09-02T02:23:15;2.65;;;1.58;;
71626;SDS011;59475;52.464;13.590;2022-09-02T02:25:42;1.83;;;1.33;;
71626;SDS011;59475;52.464;13.590;2022-09-02T02:28:07;1.90;;;1.25;;
71626;SDS011;59475;52.464;13.590;2022-09-02T02:30:33;2.47;;;1.40;;
71626;SDS011;59475;52.464;13.590;2022-09-02T02:32:59;3.28;;;1.55;;
71626;SDS011;59475;52.464;13.590;2022-09-02T02:35:24;2.40;;;1.43;;
71626;SDS011;59475;52.464;13.590;2022-09-02T02:37:49;2.00;;;1.50;;
71626;SDS011;59475;52.464;13.590;2022-09-02T02:40:19;3.10;;;1.40;;
71626;SDS011;59475;52.464;13.590;2022-09-02T02:42:47;1.50;;;1.00;;
71626;SDS011;59475;52.464;13.590;2022-09-02T02:45:13;2.03;;;1.20;;
71626;SDS011;59475;52.464;13.590;2022-09-02T02:47:39;1.70;;;1.50;;
71626;SDS011;59475;52.464;13.590;2022-09-02T02:50:06;1.95;;;1.35;;
71626;SDS011;59475;52.464;13.590;2022-09-02T02:52:34;2.10;;;1.20;;
71626;SDS011;59475;52.464;13.590;2022-09-02T02:55:00;3.00;;;1.27;;
71626;SDS011;59475;52.464;13.590;2022-09-02T02:57:25;1.48;;;1.20;;
71626;SDS011;59475;52.464;13.590;2022-09-02T02:59:51;2.33;;;1.33;;
71626;SDS011;59475;52.464;13.590;2022-09-02T03:02:16;2.50;;;1.70;;
71626;SDS011;59475;52.464;13.590;2022-09-02T03:04:41;2.43;;;1.70;;
71626;SDS011;59475;52.464;13.590;2022-09-02T03:07:07;2.00;;;1.70;;
71626;SDS011;59475;52.464;13.590;2022-09-02T03:09:33;2.60;;;1.50;;
71626;SDS011;59475;52.464;13.590;2022-09-02T03:11:59;1.95;;;1.60;;
71626;SDS011;59475;52.464;13.590;2022-09-02T03:14:24;3.80;;;1.67;;
71626;SDS011;59475;52.464;13.590;2022-09-02T03:16:50;2.40;;;1.70;;
71626;SDS011;59475;52.464;13.590;2022-09-02T03:19:16;2.70;;;2.00;;
71626;SDS011;59475;52.464;13.590;2022-09-02T03:21:41;2.63;;;1.70;;
71626;SDS011;59475;52.464;13.590;2022-09-02T03:24:08;2.57;;;1.77;;
71626;SDS011;59475;52.464;13.590;2022-09-02T03:26:35;3.40;;;1.55;;
71626;SDS011;59475;52.464;13.590;2022-09-02T03:29:00;2.63;;;1.60;;
71626;SDS011;59475;52.464;13.590;2022-09-02T03:31:26;2.00;;;1.73;;
71626;SDS011;59475;52.464;13.590;2022-09-02T03:33:52;3.60;;;1.80;;
71626;SDS011;59475;52.464;13.590;2022-09-02T03:36:19;2.20;;;1.42;;
71626;SDS011;59475;52.464;13.590;2022-09-02T03:38:49;2.33;;;1.77;;
71626;SDS011;59475;52.464;13.590;2022-09-02T03:41:15;3.67;;;1.80;;
71626;SDS011;59475;52.464;13.590;2022-09-02T03:43:40;3.77;;;1.50;;
71626;SDS011;59475;52.464;13.590;2022-09-02T03:46:06;1.90;;;1.63;;
71626;SDS011;59475;52.464;13.590;2022-09-02T03:48:33;3.38;;;1.85;;
71626;SDS011;59475;52.464;13.590;2022-09-02T03:50:59;2.00;;;1.80;;
71626;SDS011;59475;52.464;13.590;2022-09-02T03:53:26;1.90;;;1.70;;
71626;SDS011;59475;52.464;13.590;2022-09-02T03:55:51;3.00;;;1.90;;
71626;SDS011;59475;52.464;13.590;2022-09-02T03:58:17;2.92;;;1.67;;
71626;SDS011;59475;52.464;13.590;2022-09-02T04:00:42;2.00;;;1.47;;
71626;SDS011;59475;52.464;13.590;2022-09-02T04:03:08;2.40;;;1.58;;
71626;SDS011;59475;52.464;13.590;2022-09-02T04:05:34;4.47;;;1.73;;
71626;SDS011;59475;52.464;13.590;2022-09-02T04:07:59;4.73;;;2.20;;
71626;SDS011;59475;52.464;13.590;2022-09-02T04:10:25;2.58;;;1.92;;
71626;SDS011;59475;52.464;13.590;2022-09-02T04:12:51;2.17;;;1.77;;
71626;SDS011;59475;52.464;13.590;2022-09-02T04:15:16;2.83;;;1.73;;
71626;SDS011;59475;52.464;13.590;2022-09-02T04:17:43;2.20;;;2.00;;
71626;SDS011;59475;52.464;13.590;2022-09-02T04:20:10;3.87;;;2.13;;
71626;SDS011;59475;52.464;13.590;2022-09-02T04:22:37;2.13;;;1.42;;
71626;SDS011;59475;52.464;13.590;2022-09-02T04:25:03;2.77;;;2.20;;
71626;SDS011;59475;52.464;13.590;2022-09-02T04:27:29;2.90;;;1.70;;
71626;SDS011;59475;52.464;13.590;2022-09-02T04:29:55;2.20;;;1.70;;
71626;SDS011;59475;52.464;13.590;2022-09-02T04:32:20;3.63;;;1.83;;
71626;SDS011;59475;52.464;13.590;2022-09-02T04:34:46;3.45;;;1.60;;
71626;SDS011;59475;52.464;13.590;2022-09-02T04:37:12;2.45;;;1.92;;
71626;SDS011;59475;52.464;13.590;2022-09-02T04:39:37;3.53;;;1.77;;
71626;SDS011;59475;52.464;13.590;2022-09-02T04:42:03;3.08;;;1.98;;
71626;SDS011;59475;52.464;13.590;2022-09-02T04:44:29;3.63;;;1.87;;
71626;SDS011;59475;52.464;13.590;2022-09-02T04:46:54;2.10;;;1.83;;
71626;SDS011;59475;52.464;13.590;2022-09-02T04:49:19;2.80;;;2.13;;
71626;SDS011;59475;52.464;13.590;2022-09-02T04:51:45;2.28;;;1.73;;
71626;SDS011;59475;52.464;13.590;2022-09-02T04:54:10;2.23;;;1.73;;
71626;SDS011;59475;52.464;13.590;2022-09-02T04:56:36;4.23;;;2.17;;
71626;SDS011;59475;52.464;13.590;2022-09-02T04:59:02;3.33;;;1.80;;
71626;SDS011;59475;52.464;13.590;2022-09-02T05:01:29;2.72;;;1.80;;
71626;SDS011;59475;52.464;13.590;2022-09-02T05:03:57;2.03;;;1.30;;
71626;SDS011;59475;52.464;13.590;2022-09-02T05:06:26;2.40;;;2.05;;
71626;SDS011;59475;52.464;13.590;2022-09-02T05:08:52;2.10;;;1.90;;
71626;SDS011;59475;52.464;13.590;2022-09-02T05:11:22;4.53;;;1.77;;
71626;SDS011;59475;52.464;13.590;2022-09-02T05:13:52;2.80;;;2.00;;
71626;SDS011;59475;52.464;13.590;2022-09-02T05:16:23;2.90;;;2.10;;
71626;SDS011;59475;52.464;13.590;2022-09-02T05:18:51;4.40;;;1.63;;
71626;SDS011;59475;52.464;13.590;2022-09-02T05:21:18;2.35;;;2.10;;
71626;SDS011;59475;52.464;13.590;2022-09-02T05:23:45;2.35;;;1.75;;
71626;SDS011;59475;52.464;13.590;2022-09-02T05:26:11;2.73;;;1.90;;
71626;SDS011;59475;52.464;13.590;2022-09-02T05:28:37;2.53;;;1.90;;
71626;SDS011;59475;52.464;13.590;2022-09-02T05:31:07;3.03;;;2.50;;
71626;SDS011;59475;52.464;13.590;2022-09-02T05:33:35;2.80;;;1.85;;
71626;SDS011;59475;52.464;13.590;2022-09-02T05:36:02;4.45;;;1.75;;
71626;SDS011;59475;52.464;13.590;2022-09-02T05:38:28;2.87;;;2.00;;
71626;SDS011;59475;52.464;13.590;2022-09-02T05:40:54;2.38;;;1.80;;
71626;SDS011;59475;52.464;13.590;2022-09-02T05:43:20;2.23;;;1.67;;
71626;SDS011;59475;52.464;13.590;2022-09-02T05:45:46;4.38;;;2.15;;
71626;SDS011;59475;52.464;13.590;2022-09-02T05:48:12;3.70;;;2.00;;
71626;SDS011;59475;52.464;13.590;2022-09-02T05:50:57;3.22;;;2.15;;
71626;SDS011;59475;52.464;13.590;2022-09-02T05:53:22;2.80;;;1.80;;
71626;SDS011;59475;52.464;13.590;2022-09-02T05:55:50;4.43;;;1.80;;
71626;SDS011;59475;52.464;13.590;2022-09-02T05:58:16;2.17;;;1.83;;
71626;SDS011;59475;52.464;13.590;2022-09-02T06:00:41;2.40;;;1.80;;
71626;SDS011;59475;52.464;13.590;2022-09-02T06:03:06;2.97;;;1.73;;
71626;SDS011;59475;52.464;13.590;2022-09-02T06:05:32;2.10;;;1.63;;
71626;SDS011;59475;52.464;13.590;2022-09-02T06:07:57;2.13;;;1.70;;
71626;SDS011;59475;52.464;13.590;2022-09-02T06:10:23;2.50;;;1.73;;
71626;SDS011;59475;52.464;13.590;2022-09-02T06:12:48;2.63;;;1.53;;
71626;SDS011;59475;52.464;13.590;2022-09-02T06:15:13;2.47;;;1.67;;
71626;SDS011;59475;52.464;13.590;2022-09-02T06:17:39;3.25;;;2.30;;
71626;SDS011;59475;52.464;13.590;2022-09-02T06:20:04;2.33;;;2.00;;
71626;SDS011;59475;52.464;13.590;2022-09-02T06:22:30;2.65;;;1.70;;
71626;SDS011;59475;52.464;13.590;2022-09-02T06:24:56;3.67;;;2.27;;
71626;SDS011;59475;52.464;13.590;2022-09-02T06:27:21;3.40;;;1.85;;
71626;SDS011;59475;52.464;13.590;2022-09-02T06:29:47;4.40;;;1.60;;
71626;SDS011;59475;52.464;13.590;2022-09-02T06:32:12;5.30;;;2.03;;
71626;SDS011;59475;52.464;13.590;2022-09-02T06:34:38;5.23;;;1.70;;
71626;SDS011;59475;52.464;13.590;2022-09-02T06:37:03;2.47;;;1.60;;
71626;SDS011;59475;52.464;13.590;2022-09-02T06:39:29;2.53;;;1.90;;
71626;SDS011;59475;52.464;13.590;2022-09-02T06:41:54;5.93;;;1.60;;
71626;SDS011;59475;52.464;13.590;2022-09-02T06:44:19;4.53;;;1.90;;
71626;SDS011;59475;52.464;13.590;2022-09-02T06:46:55;4.10;;;1.60;;
71626;SDS011;59475;52.464;13.590;2022-09-02T06:49:22;4.78;;;1.85;;
71626;SDS011;59475;52.464;13.590;2022-09-02T06:51:49;2.58;;;1.70;;
71626;SDS011;59475;52.464;13.590;2022-09-02T06:54:17;3.37;;;1.60;;
71626;SDS011;59475;52.464;13.590;2022-09-02T06:56:44;5.75;;;1.48;;
71626;SDS011;59475;52.464;13.590;2022-09-02T06:59:11;4.47;;;1.77;;
71626;SDS011;59475;52.464;13.590;2022-09-02T07:01:37;8.07;;;1.50;;
71626;SDS011;59475;52.464;13.590;2022-09-02T07:04:02;4.47;;;1.85;;
71626;SDS011;59475;52.464;13.590;2022-09-02T07:06:48;3.80;;;2.17;;
71626;SDS011;59475;52.464;13.590;2022-09-02T07:09:18;2.30;;;1.90;;
71626;SDS011;59475;52.464;13.590;2022-09-02T07:11:46;3.95;;;1.63;;
71626;SDS011;59475;52.464;13.590;2022-09-02T07:14:21;2.17;;;1.60;;
71626;SDS011;59475;52.464;13.590;2022-09-02T07:16:50;3.67;;;1.90;;
71626;SDS011;59475;52.464;13.590;2022-09-02T07:19:16;3.88;;;1.63;;
71626;SDS011;59475;52.464;13.590;2022-09-02T07:21:43;3.67;;;1.70;;
71626;SDS011;59475;52.464;13.590;2022-09-02T07:24:09;4.97;;;2.10;;
71626;SDS011;59475;52.464;13.590;2022-09-02T07:26:36;1.95;;;1.50;;
71626;SDS011;59475;52.464;13.590;2022-09-02T07:29:02;3.63;;;2.07;;
71626;SDS011;59475;52.464;13.590;2022-09-02T07:31:28;5.97;;;2.28;;
71626;SDS011;59475;52.464;13.590;2022-09-02T07:33:54;8.00;;;1.73;;
71626;SDS011;59475;52.464;13.590;2022-09-02T07:36:23;5.47;;;1.60;;
71626;SDS011;59475;52.464;13.590;2022-09-02T07:38:50;3.58;;;1.80;;
71626;SDS011;59475;52.464;13.590;2022-09-02T07:41:16;6.50;;;2.25;;
71626;SDS011;59475;52.464;13.590;2022-09-02T07:43:41;3.23;;;1.20;;
71626;SDS011;59475;52.464;13.590;2022-09-02T07:46:07;4.87;;;1.50;;
71626;SDS011;59475;52.464;13.590;2022-09-02T07:48:32;4.20;;;1.70;;
71626;SDS011;59475;52.464;13.590;2022-09-02T07:50:59;2.63;;;1.50;;
71626;SDS011;59475;52.464;13.590;2022-09-02T07:53:25;2.47;;;1.50;;
71626;SDS011;59475;52.464;13.590;2022-09-02T07:55:51;2.97;;;1.40;;
71626;SDS011;59475;52.464;13.590;2022-09-02T07:58:18;2.22;;;1.45;;
71626;SDS011;59475;52.464;13.590;2022-09-02T08:00:45;1.85;;;1.30;;
71626;SDS011;59475;52.464;13.590;2022-09-02T08:03:11;3.47;;;1.27;;
71626;SDS011;59475;52.464;13.590;2022-09-02T08:05:37;4.50;;;1.43;;
71626;SDS011;59475;52.464;13.590;2022-09-02T08:08:04;2.30;;;1.45;;
71626;SDS011;59475;52.464;13.590;2022-09-02T08:10:31;1.80;;;1.10;;
71626;SDS011;59475;52.464;13.590;2022-09-02T08:12:58;3.90;;;1.58;;
71626;SDS011;59475;52.464;13.590;2022-09-02T08:15:29;2.22;;;1.42;;
71626;SDS011;59475;52.464;13.590;2022-09-02T08:17:55;2.17;;;1.10;;
71626;SDS011;59475;52.464;13.590;2022-09-02T08:20:21;1.48;;;0.93;;
71626;SDS011;59475;52.464;13.590;2022-09-02T08:22:47;2.33;;;1.40;;
71626;SDS011;59475;52.464;13.590;2022-09-02T08:25:12;2.78;;;1.30;;
71626;SDS011;59475;52.464;13.590;2022-09-02T08:27:38;2.27;;;1.03;;
71626;SDS011;59475;52.464;13.590;2022-09-02T08:30:04;1.80;;;0.82;;
71626;SDS011;59475;52.464;13.590;2022-09-02T08:32:34;1.30;;;0.90;;
71626;SDS011;59475;52.464;13.590;2022-09-02T08:35:01;2.10;;;0.73;;
71626;SDS011;59475;52.464;13.590;2022-09-02T08:37:28;2.15;;;0.80;;
71626;SDS011;59475;52.464;13.590;2022-09-02T08:39:55;1.48;;;0.80;;
71626;SDS011;59475;52.464;13.590;2022-09-02T08:44:57;1.23;;;0.70;;
71626;SDS011;59475;52.464;13.590;2022-09-02T08:47:29;2.70;;;0.88;;
71626;SDS011;59475;52.464;13.590;2022-09-02T08:50:00;1.45;;;0.95;;
71626;SDS011;59475;52.464;13.590;2022-09-02T08:52:41;1.73;;;1.08;;
71626;SDS011;59475;52.464;13.590;2022-09-02T08:55:10;1.85;;;1.13;;
71626;SDS011;59475;52.464;13.590;2022-09-02T08:57:42;3.63;;;1.10;;
71626;SDS011;59475;52.464;13.590;2022-09-02T09:00:09;1.58;;;0.90;;
71626;SDS011;59475;52.464;13.590;2022-09-02T09:08:17;1.33;;;0.90;;
71626;SDS011;59475;52.464;13.590;2022-09-02T09:10:54;1.97;;;0.60;;
71626;SDS011;59475;52.464;13.590;2022-09-02T09:18:58;1.23;;;0.80;;
71626;SDS011;59475;52.464;13.590;2022-09-02T09:21:31;1.60;;;1.17;;
71626;SDS011;59475;52.464;13.590;2022-09-02T09:23:57;0.93;;;0.67;;
71626;SDS011;59475;52.464;13.590;2022-09-02T09:26:27;1.85;;;0.85;;
71626;SDS011;59475;52.464;13.590;2022-09-02T09:28:56;2.70;;;1.00;;
71626;SDS011;59475;52.464;13.590;2022-09-02T09:31:25;1.40;;;0.80;;
71626;SDS011;59475;52.464;13.590;2022-09-02T09:33:59;1.57;;;0.97;;
71626;SDS011;59475;52.464;13.590;2022-09-02T09:36:53;1.48;;;1.00;;
71626;SDS011;59475;52.464;13.590;2022-09-02T09:41:49;2.15;;;1.00;;
71626;SDS011;59475;52.464;13.590;2022-09-02T09:44:35;2.00;;;1.02;;
71626;SDS011;59475;52.464;13.590;2022-09-02T09:47:03;2.50;;;1.10;;
71626;SDS011;59475;52.464;13.590;2022-09-02T09:49:34;2.65;;;1.10;;
71626;SDS011;59475;52.464;13.590;2022-09-02T09:52:00;2.53;;;0.80;;
71626;SDS011;59475;52.464;13.590;2022-09-02T09:54:26;1.80;;;0.90;;
71626;SDS011;59475;52.464;13.590;2022-09-02T09:56:52;2.70;;;1.03;;
71626;SDS011;59475;52.464;13.590;2022-09-02T10:02:25;1.50;;;0.82;;
71626;SDS011;59475;52.464;13.590;2022-09-02T10:04:52;2.70;;;0.90;;
71626;SDS011;59475;52.464;13.590;2022-09-02T10:07:36;5.13;;;1.10;;
71626;SDS011;59475;52.464;13.590;2022-09-02T10:10:19;2.35;;;1.30;;
71626;SDS011;59475;52.464;13.590;2022-09-02T10:12:48;2.53;;;1.40;;
71626;SDS011;59475;52.464;13.590;2022-09-02T10:15:16;1.90;;;1.10;;
71626;SDS011;59475;52.464;13.590;2022-09-02T10:18:02;3.33;;;1.20;;
71626;SDS011;59475;52.464;13.590;2022-09-02T10:20:43;1.73;;;1.10;;
71626;SDS011;59475;52.464;13.590;2022-09-02T10:26:15;1.95;;;1.10;;
71626;SDS011;59475;52.464;13.590;2022-09-02T10:35:44;2.35;;;1.20;;
71626;SDS011;59475;52.464;13.590;2022-09-02T10:40:40;1.98;;;0.90;;
71626;SDS011;59475;52.464;13.590;2022-09-02T10:43:14;3.08;;;1.20;;
71626;SDS011;59475;52.464;13.590;2022-09-02T10:46:04;1.73;;;0.98;;
71626;SDS011;59475;52.464;13.590;2022-09-02T10:48:38;1.63;;;1.13;;
71626;SDS011;59475;52.464;13.590;2022-09-02T10:51:11;1.83;;;0.83;;
71626;SDS011;59475;52.464;13.590;2022-09-02T10:56:57;1.70;;;1.10;;
71626;SDS011;59475;52.464;13.590;2022-09-02T11:02:26;2.08;;;0.95;;
71626;SDS011;59475;52.464;13.590;2022-09-02T11:04:59;1.73;;;1.10;;
71626;SDS011;59475;52.464;13.590;2022-09-02T11:07:34;1.15;;;0.80;;
71626;SDS011;59475;52.464;13.590;2022-09-02T11:10:09;3.03;;;0.93;;
71626;SDS011;59475;52.464;13.590;2022-09-02T11:12:46;1.48;;;1.00;;
71626;SDS011;59475;52.464;13.590;2022-09-02T11:26:12;2.15;;;1.05;;
71626;SDS011;59475;52.464;13.590;2022-09-02T11:31:56;1.20;;;0.77;;
71626;SDS011;59475;52.464;13.590;2022-09-02T11:34:32;1.52;;;0.90;;
71626;SDS011;59475;52.464;13.590;2022-09-02T11:37:03;1.20;;;0.98;;
71626;SDS011;59475;52.464;13.590;2022-09-02T11:39:36;1.58;;;0.90;;
71626;SDS011;59475;52.464;13.590;2022-09-02T11:55:55;1.65;;;0.80;;
71626;SDS011;59475;52.464;13.590;2022-09-02T11:58:38;1.23;;;0.80;;
71626;SDS011;59475;52.464;13.590;2022-09-02T12:03:33;2.70;;;1.00;;
71626;SDS011;59475;52.464;13.590;2022-09-02T12:06:03;1.00;;;0.88;;
71626;SDS011;59475;52.464;13.590;2022-09-02T12:11:03;1.83;;;1.15;;
71626;SDS011;59475;52.464;13.590;2022-09-02T12:21:19;1.90;;;1.02;;
71626;SDS011;59475;52.464;13.590;2022-09-02T12:29:11;1.43;;;1.00;;
71626;SDS011;59475;52.464;13.590;2022-09-02T12:31:55;2.35;;;1.08;;
71626;SDS011;59475;52.464;13.590;2022-09-02T12:41:46;1.33;;;0.95;;
71626;SDS011;59475;52.464;13.590;2022-09-02T12:44:21;2.67;;;0.93;;
71626;SDS011;59475;52.464;13.590;2022-09-02T12:46:59;1.35;;;0.80;;
71626;SDS011;59475;52.464;13.590;2022-09-02T12:49:34;2.23;;;0.77;;
71626;SDS011;59475;52.464;13.590;2022-09-02T12:52:49;1.45;;;1.02;;
71626;SDS011;59475;52.464;13.590;2022-09-02T12:55:01;2.10;;;0.95;;
71626;SDS011;59475;52.464;13.590;2022-09-02T12:57:40;1.00;;;0.80;;
71626;SDS011;59475;52.464;13.590;2022-09-02T13:00:11;2.17;;;1.02;;
71626;SDS011;59475;52.464;13.590;2022-09-02T13:02:52;1.20;;;0.80;;
71626;SDS011;59475;52.464;13.590;2022-09-02T13:19:11;2.95;;;1.13;;
71626;SDS011;59475;52.464;13.590;2022-09-02T13:32:29;2.97;;;1.40;;
71626;SDS011;59475;52.464;13.590;2022-09-02T13:34:56;1.63;;;1.20;;
71626;SDS011;59475;52.464;13.590;2022-09-02T13:37:38;2.97;;;1.20;;
71626;SDS011;59475;52.464;13.590;2022-09-02T13:42:51;1.95;;;1.10;;
71626;SDS011;59475;52.464;13.590;2022-09-02T13:45:19;2.15;;;1.10;;
71626;SDS011;59475;52.464;13.590;2022-09-02T13:47:49;1.00;;;0.80;;
71626;SDS011;59475;52.464;13.590;2022-09-02T13:50:33;1.85;;;1.23;;
71626;SDS011;59475;52.464;13.590;2022-09-02T13:53:03;1.47;;;1.00;;
71626;SDS011;59475;52.464;13.590;2022-09-02T13:55:31;2.60;;;0.90;;
71626;SDS011;59475;52.464;13.590;2022-09-02T13:57:58;1.73;;;1.10;;
71626;SDS011;59475;52.464;13.590;2022-09-02T14:00:30;1.52;;;1.05;;
71626;SDS011;59475;52.464;13.590;2022-09-02T14:03:17;1.10;;;0.70;;
71626;SDS011;59475;52.464;13.590;2022-09-02T14:05:46;1.42;;;0.98;;
71626;SDS011;59475;52.464;13.590;2022-09-02T14:08:31;4.10;;;1.00;;
71626;SDS011;59475;52.464;13.590;2022-09-02T14:10:57;1.40;;;1.02;;
71626;SDS011;59475;52.464;13.590;2022-09-02T14:13:23;1.05;;;0.80;;
71626;SDS011;59475;52.464;13.590;2022-09-02T14:15:49;1.25;;;0.85;;
71626;SDS011;59475;52.464;13.590;2022-09-02T14:18:15;1.37;;;1.07;;
71626;SDS011;59475;52.464;13.590;2022-09-02T14:23:25;1.73;;;1.10;;
71626;SDS011;59475;52.464;13.590;2022-09-02T14:25:55;1.25;;;0.80;;
71626;SDS011;59475;52.464;13.590;2022-09-02T14:28:29;1.95;;;0.95;;
71626;SDS011;59475;52.464;13.590;2022-09-02T14:30:59;1.10;;;0.80;;
71626;SDS011;59475;52.464;13.590;2022-09-02T14:36:03;3.90;;;1.10;;
71626;SDS011;59475;52.464;13.590;2022-09-02T14:38:49;2.25;;;0.70;;
71626;SDS011;59475;52.464;13.590;2022-09-02T14:41:19;2.28;;;0.80;;
71626;SDS011;59475;52.464;13.590;2022-09-02T14:46:23;2.80;;;1.05;;
71626;SDS011;59475;52.464;13.590;2022-09-02T14:48:57;1.10;;;0.77;;
71626;SDS011;59475;52.464;13.590;2022-09-02T14:51:30;2.67;;;1.10;;
71626;SDS011;59475;52.464;13.590;2022-09-02T14:54:04;4.13;;;1.10;;
71626;SDS011;59475;52.464;13.590;2022-09-02T14:59:13;2.17;;;0.82;;
71626;SDS011;59475;52.464;13.590;2022-09-02T15:01:42;1.63;;;0.93;;
71626;SDS011;59475;52.464;13.590;2022-09-02T15:04:12;1.40;;;0.60;;
71626;SDS011;59475;52.464;13.590;2022-09-02T15:06:38;1.10;;;0.60;;
71626;SDS011;59475;52.464;13.590;2022-09-02T15:09:04;1.17;;;0.70;;
71626;SDS011;59475;52.464;13.590;2022-09-02T15:11:30;3.33;;;0.80;;
71626;SDS011;59475;52.464;13.590;2022-09-02T15:13:55;1.55;;;0.80;;
71626;SDS011;59475;52.464;13.590;2022-09-02T15:16:20;1.87;;;0.77;;
71626;SDS011;59475;52.464;13.590;2022-09-02T15:18:46;1.37;;;0.60;;
71626;SDS011;59475;52.464;13.590;2022-09-02T15:21:11;1.00;;;0.70;;
71626;SDS011;59475;52.464;13.590;2022-09-02T15:23:37;1.98;;;0.90;;
71626;SDS011;59475;52.464;13.590;2022-09-02T15:26:04;0.95;;;0.60;;
71626;SDS011;59475;52.464;13.590;2022-09-02T15:28:30;1.37;;;0.90;;
71626;SDS011;59475;52.464;13.590;2022-09-02T15:30:56;0.95;;;0.82;;
71626;SDS011;59475;52.464;13.590;2022-09-02T15:33:23;1.63;;;0.70;;
71626;SDS011;59475;52.464;13.590;2022-09-02T15:35:48;1.00;;;0.80;;
71626;SDS011;59475;52.464;13.590;2022-09-02T15:38:14;1.20;;;0.70;;
71626;SDS011;59475;52.464;13.590;2022-09-02T15:40:40;1.73;;;0.90;;
71626;SDS011;59475;52.464;13.590;2022-09-02T15:43:06;1.37;;;0.70;;
71626;SDS011;59475;52.464;13.590;2022-09-02T15:45:31;1.00;;;0.77;;
71626;SDS011;59475;52.464;13.590;2022-09-02T15:47:56;1.10;;;0.70;;
71626;SDS011;59475;52.464;13.590;2022-09-02T15:50:22;1.00;;;0.80;;
71626;SDS011;59475;52.464;13.590;2022-09-02T15:52:48;1.27;;;0.87;;
71626;SDS011;59475;52.464;13.590;2022-09-02T15:55:13;2.00;;;0.90;;
71626;SDS011;59475;52.464;13.590;2022-09-02T15:57:39;1.83;;;0.70;;
71626;SDS011;59475;52.464;13.590;2022-09-02T16:00:05;1.08;;;0.75;;
71626;SDS011;59475;52.464;13.590;2022-09-02T16:02:31;1.92;;;0.75;;
71626;SDS011;59475;52.464;13.590;2022-09-02T16:04:57;1.27;;;0.83;;
71626;SDS011;59475;52.464;13.590;2022-09-02T16:07:22;1.30;;;0.90;;
71626;SDS011;59475;52.464;13.590;2022-09-02T16:09:48;1.33;;;0.87;;
71626;SDS011;59475;52.464;13.590;2022-09-02T16:12:13;2.03;;;0.90;;
71626;SDS011;59475;52.464;13.590;2022-09-02T16:14:38;1.97;;;0.70;;
71626;SDS011;59475;52.464;13.590;2022-09-02T16:17:04;1.33;;;0.80;;
71626;SDS011;59475;52.464;13.590;2022-09-02T16:19:32;3.00;;;0.80;;
71626;SDS011;59475;52.464;13.590;2022-09-02T16:21:58;1.27;;;0.80;;
71626;SDS011;59475;52.464;13.590;2022-09-02T16:24:23;1.87;;;1.00;;
71626;SDS011;59475;52.464;13.590;2022-09-02T16:26:49;1.60;;;1.00;;
71626;SDS011;59475;52.464;13.590;2022-09-02T16:29:15;2.63;;;1.40;;
71626;SDS011;59475;52.464;13.590;2022-09-02T16:31:42;2.33;;;1.00;;
71626;SDS011;59475;52.464;13.590;2022-09-02T16:34:11;1.10;;;0.80;;
71626;SDS011;59475;52.464;13.590;2022-09-02T16:36:41;1.92;;;0.80;;
71626;SDS011;59475;52.464;13.590;2022-09-02T16:39:08;1.30;;;0.98;;
71626;SDS011;59475;52.464;13.590;2022-09-02T16:41:38;1.00;;;0.60;;
71626;SDS011;59475;52.464;13.590;2022-09-02T16:44:08;2.35;;;0.70;;
71626;SDS011;59475;52.464;13.590;2022-09-02T16:46:36;1.38;;;0.70;;
71626;SDS011;59475;52.464;13.590;2022-09-02T16:49:04;2.72;;;0.80;;
71626;SDS011;59475;52.464;13.590;2022-09-02T16:51:30;1.92;;;1.00;;